SBI5346 UNOO-UNNT
Flight info
| Callsign | SBI5346 |
|---|---|
| Flight time | 0h 56m |
| Altitude | 35000 |
| Route | K0819F350 RUMOD A844 BIKMI R234 ABESA B944 GOLIM |
| Aircraft | A320/M-SDE3FGHIRWY/LB1 |
Departure
| Time | 2026-04-25 13:27 |
|---|---|
| Airport | Omsk Central Airport (UNOO) |
Arrival
| Time | 2026-04-25 14:24 |
|---|---|
| Airport | Novosibirsk Tolmachevo Airport (UNNT) |
| Time | Latitude | Longitude | Altitude | Speed | Heading |
|---|---|---|---|---|---|
| 2026-04-25 12:36 | 54.95967 | 73.31445 | 311 ft | 0 kts | 167° |
| 2026-04-25 12:50 | 54.95968 | 73.31445 | 311 ft | 0 kts | 167° |
| 2026-04-25 13:11 | 54.95969 | 73.31445 | 311 ft | 0 kts | 167° |
| 2026-04-25 13:15 | 54.95969 | 73.31444 | 311 ft | 0 kts | 167° |
| 2026-04-25 13:18 | 54.95966 | 73.31446 | 310 ft | 2 kts | 167° |
| 2026-04-25 13:18 | 54.95957 | 73.31455 | 309 ft | 1 kts | 131° |
| 2026-04-25 13:19 | 54.95957 | 73.31507 | 311 ft | 7 kts | 79° |
| 2026-04-25 13:19 | 54.95996 | 73.31600 | 310 ft | 10 kts | 43° |
| 2026-04-25 13:19 | 54.96044 | 73.31686 | 310 ft | 10 kts | 46° |
| 2026-04-25 13:19 | 54.96077 | 73.31747 | 309 ft | 12 kts | 46° |
| 2026-04-25 13:20 | 54.96170 | 73.31914 | 308 ft | 15 kts | 46° |
| 2026-04-25 13:20 | 54.96241 | 73.32040 | 307 ft | 14 kts | 45° |
| 2026-04-25 13:20 | 54.96313 | 73.32144 | 308 ft | 13 kts | 37° |
| 2026-04-25 13:20 | 54.96382 | 73.32229 | 307 ft | 11 kts | 28° |
| 2026-04-25 13:21 | 54.96447 | 73.32251 | 307 ft | 9 kts | 28° |
| 2026-04-25 13:21 | 54.96479 | 73.32346 | 307 ft | 11 kts | 74° |
| 2026-04-25 13:21 | 54.96501 | 73.32512 | 305 ft | 17 kts | 77° |
| 2026-04-25 13:21 | 54.96528 | 73.32718 | 305 ft | 17 kts | 77° |
| 2026-04-25 13:22 | 54.96546 | 73.32853 | 304 ft | 11 kts | 77° |
| 2026-04-25 13:22 | 54.96562 | 73.32975 | 304 ft | 10 kts | 75° |
| 2026-04-25 13:22 | 54.96605 | 73.33044 | 303 ft | 8 kts | 11° |
| 2026-04-25 13:23 | 54.96675 | 73.33025 | 303 ft | 0 kts | 347° |
| 2026-04-25 13:24 | 54.96682 | 73.33022 | 304 ft | 3 kts | 347° |
| 2026-04-25 13:24 | 54.96723 | 73.33006 | 305 ft | 9 kts | 347° |
| 2026-04-25 13:24 | 54.96800 | 73.32975 | 303 ft | 14 kts | 347° |
| 2026-04-25 13:25 | 54.96870 | 73.32947 | 303 ft | 17 kts | 347° |
| 2026-04-25 13:25 | 54.96964 | 73.32867 | 302 ft | 7 kts | 262° |
| 2026-04-25 13:25 | 54.96950 | 73.32798 | 306 ft | 0 kts | 257° |
| 2026-04-25 13:26 | 54.96931 | 73.32654 | 306 ft | 29 kts | 257° |
| 2026-04-25 13:27 | 54.96828 | 73.31891 | 308 ft | 98 kts | 257° |
| 2026-04-25 13:27 | 54.96624 | 73.30416 | 317 ft | 150 kts | 256° |
| 2026-04-25 13:27 | 54.96368 | 73.28586 | 851 ft | 155 kts | 254° |
| 2026-04-25 13:27 | 54.96113 | 73.26751 | 1499 ft | 158 kts | 253° |
| 2026-04-25 13:28 | 54.95838 | 73.24828 | 1801 ft | 175 kts | 254° |
| 2026-04-25 13:28 | 54.95743 | 73.24144 | 1897 ft | 183 kts | 253° |
| 2026-04-25 13:28 | 54.95187 | 73.20186 | 2523 ft | 222 kts | 254° |
| 2026-04-25 13:28 | 54.94839 | 73.17467 | 3137 ft | 236 kts | 255° |
| 2026-04-25 13:29 | 54.94488 | 73.14671 | 4020 ft | 237 kts | 254° |
| 2026-04-25 13:29 | 54.94128 | 73.11912 | 4958 ft | 237 kts | 252° |
| 2026-04-25 13:29 | 54.93749 | 73.09078 | 5885 ft | 238 kts | 252° |
| 2026-04-25 13:30 | 54.93142 | 73.03349 | 7443 ft | 256 kts | 270° |
| 2026-04-25 13:30 | 54.93806 | 73.00354 | 8146 ft | 280 kts | 300° |
| 2026-04-25 13:30 | 54.95375 | 72.98187 | 8935 ft | 302 kts | 332° |
| 2026-04-25 13:31 | 54.99644 | 72.98728 | 10272 ft | 337 kts | 20° |
| 2026-04-25 13:31 | 55.01870 | 73.00553 | 10500 ft | 361 kts | 27° |
| 2026-04-25 13:31 | 55.04091 | 73.02737 | 10770 ft | 381 kts | 30° |
| 2026-04-25 13:31 | 55.06389 | 73.05150 | 11364 ft | 388 kts | 33° |
| 2026-04-25 13:32 | 55.08451 | 73.08227 | 12042 ft | 393 kts | 48° |
| 2026-04-25 13:32 | 55.10137 | 73.12085 | 12756 ft | 395 kts | 60° |
| 2026-04-25 13:32 | 55.11312 | 73.16344 | 13431 ft | 396 kts | 73° |
| 2026-04-25 13:32 | 55.11975 | 73.20996 | 14072 ft | 396 kts | 82° |
| 2026-04-25 13:33 | 55.12501 | 73.25749 | 14686 ft | 400 kts | 83° |
| 2026-04-25 13:33 | 55.13007 | 73.30539 | 15285 ft | 403 kts | 83° |
| 2026-04-25 13:33 | 55.13503 | 73.35383 | 15880 ft | 407 kts | 83° |
| 2026-04-25 13:33 | 55.13671 | 73.37032 | 16085 ft | 408 kts | 83° |
| 2026-04-25 13:34 | 55.14960 | 73.45043 | 17027 ft | 420 kts | 68° |
| 2026-04-25 13:34 | 55.16385 | 73.49528 | 17614 ft | 425 kts | 56° |
| 2026-04-25 13:34 | 55.18208 | 73.53640 | 18192 ft | 430 kts | 52° |
| 2026-04-25 13:34 | 55.20084 | 73.57732 | 18704 ft | 433 kts | 52° |
| 2026-04-25 13:35 | 55.21971 | 73.61875 | 19231 ft | 436 kts | 52° |
| 2026-04-25 13:35 | 55.23863 | 73.66049 | 19764 ft | 439 kts | 52° |
| 2026-04-25 13:35 | 55.25762 | 73.70263 | 20304 ft | 442 kts | 52° |
| 2026-04-25 13:35 | 55.27665 | 73.74502 | 20821 ft | 444 kts | 52° |
| 2026-04-25 13:36 | 55.29599 | 73.78754 | 21331 ft | 447 kts | 49° |
| 2026-04-25 13:36 | 55.31736 | 73.82741 | 21822 ft | 450 kts | 48° |
| 2026-04-25 13:36 | 55.33529 | 73.87244 | 22285 ft | 452 kts | 63° |
| 2026-04-25 13:36 | 55.34708 | 73.92372 | 22754 ft | 453 kts | 76° |
| 2026-04-25 13:37 | 55.35344 | 73.97780 | 23213 ft | 453 kts | 86° |
| 2026-04-25 13:37 | 55.35484 | 74.03291 | 23613 ft | 452 kts | 96° |
| 2026-04-25 13:37 | 55.35119 | 74.08757 | 23976 ft | 451 kts | 103° |
| 2026-04-25 13:37 | 55.34576 | 74.14205 | 24337 ft | 453 kts | 104° |
| 2026-04-25 13:38 | 55.34008 | 74.19659 | 24694 ft | 455 kts | 104° |
| 2026-04-25 13:38 | 55.33421 | 74.25130 | 25043 ft | 457 kts | 104° |
| 2026-04-25 13:38 | 55.32824 | 74.30622 | 25396 ft | 459 kts | 104° |
| 2026-04-25 13:38 | 55.32224 | 74.36143 | 25724 ft | 461 kts | 104° |
| 2026-04-25 13:39 | 55.31625 | 74.41677 | 26076 ft | 463 kts | 104° |
| 2026-04-25 13:39 | 55.31228 | 74.45360 | 26299 ft | 464 kts | 104° |
| 2026-04-25 13:39 | 55.30626 | 74.50933 | 26631 ft | 466 kts | 104° |
| 2026-04-25 13:39 | 55.30020 | 74.56544 | 26965 ft | 468 kts | 104° |
| 2026-04-25 13:40 | 55.29413 | 74.62163 | 27282 ft | 470 kts | 104° |
| 2026-04-25 13:40 | 55.28801 | 74.67808 | 27597 ft | 472 kts | 104° |
| 2026-04-25 13:40 | 55.28184 | 74.73470 | 27895 ft | 474 kts | 104° |
| 2026-04-25 13:40 | 55.27562 | 74.79153 | 28180 ft | 476 kts | 104° |
| 2026-04-25 13:41 | 55.26934 | 74.84855 | 28460 ft | 477 kts | 104° |
| 2026-04-25 13:41 | 55.26298 | 74.90577 | 28730 ft | 479 kts | 104° |
| 2026-04-25 13:41 | 55.25655 | 74.96317 | 28986 ft | 481 kts | 104° |
| 2026-04-25 13:41 | 55.25007 | 75.02074 | 29226 ft | 483 kts | 104° |
| 2026-04-25 13:42 | 55.24353 | 75.07857 | 29461 ft | 484 kts | 104° |
| 2026-04-25 13:42 | 55.23697 | 75.13656 | 29730 ft | 485 kts | 104° |
| 2026-04-25 13:42 | 55.23040 | 75.19444 | 30050 ft | 484 kts | 104° |
| 2026-04-25 13:42 | 55.22381 | 75.25223 | 30329 ft | 484 kts | 104° |
| 2026-04-25 13:43 | 55.21720 | 75.30999 | 30600 ft | 484 kts | 104° |
| 2026-04-25 13:43 | 55.21057 | 75.36771 | 30869 ft | 484 kts | 104° |
| 2026-04-25 13:43 | 55.20388 | 75.42549 | 31132 ft | 484 kts | 105° |
| 2026-04-25 13:43 | 55.19718 | 75.48308 | 31393 ft | 484 kts | 105° |
| 2026-04-25 13:44 | 55.19052 | 75.54004 | 31663 ft | 483 kts | 105° |
| 2026-04-25 13:44 | 55.18363 | 75.59840 | 31934 ft | 483 kts | 105° |
| 2026-04-25 13:44 | 55.17679 | 75.65597 | 32203 ft | 484 kts | 105° |
| 2026-04-25 13:44 | 55.16999 | 75.71350 | 32465 ft | 484 kts | 105° |
| 2026-04-25 13:45 | 55.16319 | 75.77116 | 32733 ft | 484 kts | 104° |
| 2026-04-25 13:45 | 55.15638 | 75.82872 | 33000 ft | 484 kts | 104° |
| 2026-04-25 13:45 | 55.14954 | 75.88628 | 33258 ft | 484 kts | 104° |
| 2026-04-25 13:45 | 55.14265 | 75.94386 | 33528 ft | 484 kts | 104° |
| 2026-04-25 13:46 | 55.13573 | 76.00142 | 33796 ft | 484 kts | 104° |
| 2026-04-25 13:46 | 55.12884 | 76.05817 | 34041 ft | 483 kts | 104° |
| 2026-04-25 13:46 | 55.12184 | 76.11554 | 34276 ft | 483 kts | 104° |
| 2026-04-25 13:46 | 55.11471 | 76.17373 | 34512 ft | 483 kts | 104° |
| 2026-04-25 13:47 | 55.10775 | 76.23029 | 34736 ft | 483 kts | 104° |
| 2026-04-25 13:47 | 55.10067 | 76.28763 | 34854 ft | 484 kts | 104° |
| 2026-04-25 13:47 | 55.09357 | 76.34508 | 34882 ft | 484 kts | 104° |
| 2026-04-25 13:48 | 55.07926 | 76.45998 | 34880 ft | 484 kts | 104° |
| 2026-04-25 13:48 | 55.06488 | 76.57485 | 34883 ft | 484 kts | 104° |
| 2026-04-25 13:49 | 55.05043 | 76.68951 | 34886 ft | 484 kts | 104° |
| 2026-04-25 13:49 | 55.03581 | 76.80410 | 34892 ft | 484 kts | 104° |
| 2026-04-25 13:50 | 55.02107 | 76.91847 | 34898 ft | 484 kts | 105° |
| 2026-04-25 13:50 | 55.00630 | 77.03273 | 34908 ft | 483 kts | 104° |
| 2026-04-25 13:51 | 54.99139 | 77.14687 | 34903 ft | 483 kts | 105° |
| 2026-04-25 13:51 | 54.97636 | 77.26087 | 34917 ft | 483 kts | 105° |
| 2026-04-25 13:52 | 54.96119 | 77.37475 | 34916 ft | 483 kts | 105° |
| 2026-04-25 13:52 | 54.94598 | 77.48834 | 34925 ft | 482 kts | 105° |
| 2026-04-25 13:53 | 54.93214 | 77.60250 | 34928 ft | 483 kts | 97° |
| 2026-04-25 13:53 | 54.93373 | 77.71917 | 34933 ft | 484 kts | 83° |
| 2026-04-25 13:54 | 54.94198 | 77.83528 | 34929 ft | 484 kts | 83° |
| 2026-04-25 13:54 | 54.94989 | 77.95159 | 34942 ft | 484 kts | 83° |
| 2026-04-25 13:55 | 54.95760 | 78.06778 | 34944 ft | 484 kts | 83° |
| 2026-04-25 13:55 | 54.96532 | 78.18407 | 34949 ft | 483 kts | 83° |
| 2026-04-25 13:56 | 54.97299 | 78.30024 | 34957 ft | 483 kts | 83° |
| 2026-04-25 13:56 | 54.98050 | 78.41647 | 34959 ft | 483 kts | 83° |
| 2026-04-25 13:57 | 54.98785 | 78.53272 | 34962 ft | 483 kts | 84° |
| 2026-04-25 13:57 | 54.99511 | 78.64883 | 34966 ft | 482 kts | 84° |
| 2026-04-25 13:58 | 55.00227 | 78.76481 | 34973 ft | 482 kts | 84° |
| 2026-04-25 13:58 | 55.00936 | 78.88082 | 34977 ft | 481 kts | 84° |
| 2026-04-25 13:59 | 55.01631 | 78.99672 | 34986 ft | 481 kts | 84° |
| 2026-04-25 13:59 | 55.02313 | 79.11181 | 34988 ft | 480 kts | 84° |
| 2026-04-25 14:00 | 55.02985 | 79.22753 | 34991 ft | 480 kts | 84° |
| 2026-04-25 14:00 | 55.03638 | 79.34318 | 34995 ft | 480 kts | 84° |
| 2026-04-25 14:01 | 55.04269 | 79.45893 | 35000 ft | 479 kts | 84° |
| 2026-04-25 14:01 | 55.04913 | 79.57462 | 35009 ft | 479 kts | 84° |
| 2026-04-25 14:02 | 55.05541 | 79.69012 | 35015 ft | 479 kts | 84° |
| 2026-04-25 14:02 | 55.06152 | 79.80572 | 35015 ft | 478 kts | 84° |
| 2026-04-25 14:03 | 55.06750 | 79.92124 | 35022 ft | 478 kts | 84° |
| 2026-04-25 14:03 | 55.07348 | 80.03663 | 34583 ft | 476 kts | 84° |
| 2026-04-25 14:03 | 55.07643 | 80.09417 | 34068 ft | 475 kts | 84° |
| 2026-04-25 14:04 | 55.07937 | 80.15163 | 33463 ft | 475 kts | 84° |
| 2026-04-25 14:04 | 55.08223 | 80.20903 | 32865 ft | 475 kts | 85° |
| 2026-04-25 14:04 | 55.08503 | 80.26649 | 32283 ft | 476 kts | 85° |
| 2026-04-25 14:04 | 55.08786 | 80.32423 | 31695 ft | 478 kts | 85° |
| 2026-04-25 14:05 | 55.09067 | 80.38205 | 31143 ft | 479 kts | 85° |
| 2026-04-25 14:05 | 55.09340 | 80.44002 | 30594 ft | 480 kts | 85° |
| 2026-04-25 14:05 | 55.09615 | 80.49818 | 30046 ft | 481 kts | 85° |
| 2026-04-25 14:05 | 55.09891 | 80.55643 | 29411 ft | 481 kts | 85° |
| 2026-04-25 14:06 | 55.10160 | 80.61447 | 28797 ft | 477 kts | 86° |
| 2026-04-25 14:06 | 55.10423 | 80.67189 | 28193 ft | 473 kts | 86° |
| 2026-04-25 14:06 | 55.10679 | 80.72899 | 27598 ft | 469 kts | 86° |
| 2026-04-25 14:06 | 55.10933 | 80.78549 | 27023 ft | 465 kts | 86° |
| 2026-04-25 14:07 | 55.11184 | 80.84159 | 26455 ft | 461 kts | 86° |
| 2026-04-25 14:07 | 55.11425 | 80.89724 | 25898 ft | 457 kts | 86° |
| 2026-04-25 14:07 | 55.11667 | 80.95237 | 25351 ft | 454 kts | 87° |
| 2026-04-25 14:07 | 55.11850 | 81.00722 | 24826 ft | 450 kts | 89° |
| 2026-04-25 14:08 | 55.11926 | 81.06163 | 24295 ft | 446 kts | 91° |
| 2026-04-25 14:08 | 55.11925 | 81.11567 | 23775 ft | 443 kts | 92° |
| 2026-04-25 14:08 | 55.11888 | 81.16927 | 23204 ft | 440 kts | 92° |
| 2026-04-25 14:08 | 55.11847 | 81.22252 | 22589 ft | 437 kts | 92° |
| 2026-04-25 14:09 | 55.11821 | 81.27535 | 22012 ft | 434 kts | 92° |
| 2026-04-25 14:09 | 55.11812 | 81.32791 | 21436 ft | 431 kts | 92° |
| 2026-04-25 14:09 | 55.11817 | 81.38006 | 20872 ft | 428 kts | 91° |
| 2026-04-25 14:09 | 55.11820 | 81.39694 | 20691 ft | 427 kts | 91° |
| 2026-04-25 14:10 | 55.11838 | 81.46611 | 19955 ft | 424 kts | 91° |
| 2026-04-25 14:10 | 55.11851 | 81.53479 | 19242 ft | 421 kts | 91° |
| 2026-04-25 14:10 | 55.11856 | 81.58519 | 18725 ft | 419 kts | 92° |
| 2026-04-25 14:10 | 55.11856 | 81.63653 | 18176 ft | 417 kts | 92° |
| 2026-04-25 14:11 | 55.11852 | 81.68728 | 17587 ft | 415 kts | 92° |
| 2026-04-25 14:11 | 55.11843 | 81.73693 | 17018 ft | 414 kts | 92° |
| 2026-04-25 14:11 | 55.11829 | 81.78702 | 16447 ft | 412 kts | 92° |
| 2026-04-25 14:11 | 55.11813 | 81.83695 | 15889 ft | 410 kts | 92° |
| 2026-04-25 14:12 | 55.11798 | 81.88668 | 15341 ft | 409 kts | 92° |
| 2026-04-25 14:12 | 55.11784 | 81.93593 | 14850 ft | 398 kts | 92° |
| 2026-04-25 14:12 | 55.11772 | 81.98331 | 14398 ft | 382 kts | 92° |
| 2026-04-25 14:12 | 55.11759 | 82.02880 | 13943 ft | 368 kts | 92° |
| 2026-04-25 14:13 | 55.11742 | 82.07287 | 13459 ft | 359 kts | 92° |
| 2026-04-25 14:13 | 55.11719 | 82.11621 | 12958 ft | 355 kts | 92° |
| 2026-04-25 14:13 | 55.11696 | 82.15906 | 12470 ft | 351 kts | 92° |
| 2026-04-25 14:13 | 55.11673 | 82.20145 | 11980 ft | 347 kts | 91° |
| 2026-04-25 14:14 | 55.11650 | 82.24329 | 11505 ft | 343 kts | 91° |
| 2026-04-25 14:14 | 55.11625 | 82.28445 | 11006 ft | 333 kts | 91° |
| 2026-04-25 14:14 | 55.11600 | 82.32437 | 10495 ft | 325 kts | 91° |
| 2026-04-25 14:14 | 55.11572 | 82.36347 | 9991 ft | 319 kts | 91° |
| 2026-04-25 14:15 | 55.11544 | 82.40184 | 9445 ft | 314 kts | 91° |
| 2026-04-25 14:15 | 55.11541 | 82.41470 | 9259 ft | 313 kts | 89° |
| 2026-04-25 14:15 | 55.12099 | 82.47639 | 8367 ft | 311 kts | 78° |
| 2026-04-25 14:15 | 55.12525 | 82.51315 | 7805 ft | 305 kts | 79° |
| 2026-04-25 14:16 | 55.12938 | 82.54906 | 7256 ft | 297 kts | 79° |
| 2026-04-25 14:16 | 55.13364 | 82.58372 | 6865 ft | 285 kts | 77° |
| 2026-04-25 14:16 | 55.13865 | 82.61633 | 6540 ft | 271 kts | 75° |
| 2026-04-25 14:16 | 55.14389 | 82.64758 | 6207 ft | 267 kts | 75° |
| 2026-04-25 14:17 | 55.14923 | 82.67862 | 5880 ft | 265 kts | 75° |
| 2026-04-25 14:17 | 55.15452 | 82.70940 | 5519 ft | 263 kts | 75° |
| 2026-04-25 14:17 | 55.15865 | 82.74009 | 5165 ft | 255 kts | 86° |
| 2026-04-25 14:17 | 55.15930 | 82.77085 | 4821 ft | 252 kts | 91° |
| 2026-04-25 14:18 | 55.15963 | 82.80147 | 4421 ft | 249 kts | 91° |
| 2026-04-25 14:18 | 55.15966 | 82.83137 | 4015 ft | 243 kts | 100° |
| 2026-04-25 14:18 | 55.15430 | 82.85767 | 3789 ft | 221 kts | 129° |
| 2026-04-25 14:18 | 55.14374 | 82.87521 | 3572 ft | 202 kts | 155° |
| 2026-04-25 14:19 | 55.13091 | 82.88354 | 3425 ft | 195 kts | 168° |
| 2026-04-25 14:19 | 55.11793 | 82.88997 | 3337 ft | 193 kts | 172° |
| 2026-04-25 14:19 | 55.10477 | 82.89100 | 3108 ft | 188 kts | 189° |
| 2026-04-25 14:19 | 55.09180 | 82.88850 | 2855 ft | 187 kts | 188° |
| 2026-04-25 14:20 | 55.07890 | 82.88611 | 2609 ft | 186 kts | 188° |
| 2026-04-25 14:20 | 55.07474 | 82.88535 | 2524 ft | 185 kts | 188° |
| 2026-04-25 14:20 | 55.05338 | 82.88051 | 2116 ft | 184 kts | 199° |
| 2026-04-25 14:20 | 55.04214 | 82.87070 | 2018 ft | 182 kts | 218° |
| 2026-04-25 14:21 | 55.03389 | 82.85531 | 2032 ft | 166 kts | 236° |
| 2026-04-25 14:21 | 55.02942 | 82.83783 | 1995 ft | 150 kts | 251° |
| 2026-04-25 14:21 | 55.02769 | 82.82056 | 1950 ft | 141 kts | 257° |
| 2026-04-25 14:21 | 55.02621 | 82.80400 | 1797 ft | 136 kts | 257° |
| 2026-04-25 14:22 | 55.02476 | 82.78773 | 1638 ft | 135 kts | 258° |
| 2026-04-25 14:22 | 55.02331 | 82.77153 | 1460 ft | 136 kts | 257° |
| 2026-04-25 14:22 | 55.02185 | 82.75529 | 1282 ft | 136 kts | 258° |
| 2026-04-25 14:22 | 55.02039 | 82.73890 | 1109 ft | 138 kts | 259° |
| 2026-04-25 14:23 | 55.01894 | 82.72231 | 911 ft | 139 kts | 259° |
| 2026-04-25 14:23 | 55.01744 | 82.70548 | 727 ft | 142 kts | 260° |
| 2026-04-25 14:23 | 55.01595 | 82.68860 | 544 ft | 141 kts | 259° |
| 2026-04-25 14:23 | 55.01445 | 82.67182 | 377 ft | 136 kts | 260° |
| 2026-04-25 14:24 | 55.01339 | 82.66229 | 372 ft | 105 kts | 259° |
| 2026-04-25 14:24 | 55.01244 | 82.65274 | 373 ft | 55 kts | 264° |
| 2026-04-25 14:24 | 55.01224 | 82.64835 | 372 ft | 29 kts | 261° |
| 2026-04-25 14:24 | 55.01193 | 82.64492 | 372 ft | 29 kts | 261° |
| 2026-04-25 14:25 | 55.01157 | 82.64150 | 375 ft | 29 kts | 262° |
| 2026-04-25 14:25 | 55.01116 | 82.63985 | 375 ft | 11 kts | 181° |
| 2026-04-25 14:25 | 55.01030 | 82.64006 | 374 ft | 15 kts | 169° |
| 2026-04-25 14:25 | 55.00992 | 82.64080 | 373 ft | 5 kts | 104° |
| 2026-04-25 14:26 | 55.00992 | 82.64082 | 373 ft | 0 kts | 104° |
| 2026-04-25 14:26 | 55.00987 | 82.64117 | 373 ft | 6 kts | 104° |
| 2026-04-25 14:26 | 55.00972 | 82.64224 | 373 ft | 12 kts | 102° |
| 2026-04-25 14:27 | 55.00950 | 82.64401 | 373 ft | 18 kts | 103° |
| 2026-04-25 14:27 | 55.00924 | 82.64602 | 373 ft | 14 kts | 103° |
| 2026-04-25 14:27 | 55.00900 | 82.64782 | 373 ft | 17 kts | 102° |
| 2026-04-25 14:27 | 55.00878 | 82.64955 | 373 ft | 14 kts | 102° |
| 2026-04-25 14:28 | 55.00880 | 82.65139 | 373 ft | 17 kts | 81° |
| 2026-04-25 14:28 | 55.00889 | 82.65347 | 373 ft | 18 kts | 80° |
| 2026-04-25 14:28 | 55.00907 | 82.65538 | 373 ft | 16 kts | 84° |
| 2026-04-25 14:28 | 55.00924 | 82.65735 | 373 ft | 17 kts | 79° |
| 2026-04-25 14:29 | 55.00943 | 82.65939 | 373 ft | 16 kts | 82° |
| 2026-04-25 14:29 | 55.00958 | 82.66097 | 373 ft | 11 kts | 71° |
| 2026-04-25 14:29 | 55.00963 | 82.66186 | 373 ft | 6 kts | 139° |
| 2026-04-25 14:29 | 55.00953 | 82.66196 | 373 ft | 0 kts | 154° |
| 2026-04-25 14:30 | 55.00951 | 82.66197 | 373 ft | 0 kts | 165° |
| 2026-04-25 14:30 | 55.00939 | 82.66199 | 373 ft | 1 kts | 171° |
| 2026-04-25 14:30 | 55.00936 | 82.66200 | 373 ft | 1 kts | 170° |
| 2026-04-25 14:31 | 55.00932 | 82.66202 | 373 ft | 0 kts | 170° |
| 2026-04-25 14:31 | 55.00927 | 82.66203 | 373 ft | 0 kts | 170° |